Time;durP1;ratioP1;P1;durP2;ratioP2;P2;SDS_P1;SDS_P2;PMS_P1;PMS_P2;Temp;Humidity;BMP_temperature;BMP_pressure;BME280_temperature;BME280_humidity;BME280_pressure;Samples;Min_cycle;Max_cycle;Signal;HPM_P1;HPM_P2
2021/08/31 00:00:30;;;;;;;0.03;0.03;;;13.00;99.90;;;;;;5016648;28;20025;-74
2021/08/31 00:02:56;;;;;;;0.10;0.00;;;13.00;99.90;;;;;;5034364;28;20061;-74
2021/08/31 00:05:22;;;;;;;0.00;0.00;;;12.90;99.90;;;;;;5034258;28;20281;-74
2021/08/31 00:07:47;;;;;;;0.00;0.00;;;12.80;99.90;;;;;;5016470;28;20025;-74
2021/08/31 00:10:13;;;;;;;0.10;0.10;;;12.80;99.90;;;;;;5016470;28;20022;-74
2021/08/31 00:12:40;;;;;;;0.17;0.08;;;12.80;99.90;;;;;;5016494;28;20026;-74
2021/08/31 00:15:07;;;;;;;0.00;0.00;;;12.80;99.90;;;;;;5034185;28;20521;-74
2021/08/31 00:17:33;;;;;;;0.00;0.00;;;12.80;99.90;;;;;;5016262;28;20084;-74
2021/08/31 00:19:58;;;;;;;0.00;0.00;;;12.80;99.90;;;;;;5016233;28;20030;-74
2021/08/31 00:22:24;;;;;;;0.00;0.00;;;12.80;99.90;;;;;;5033938;28;20021;-74
2021/08/31 00:24:50;;;;;;;0.00;0.00;;;12.80;99.90;;;;;;5033923;28;20022;-74
2021/08/31 00:27:16;;;;;;;0.00;0.00;;;12.80;99.90;;;;;;5033708;28;20036;-74
2021/08/31 00:29:41;;;;;;;0.00;0.00;;;12.80;99.90;;;;;;5016132;28;20018;-73
2021/08/31 00:32:08;;;;;;;0.00;0.00;;;12.70;99.90;;;;;;5033767;28;20040;-74
2021/08/31 00:34:33;;;;;;;0.32;0.30;;;12.70;99.90;;;;;;5015990;28;20030;-74
2021/08/31 00:36:59;;;;;;;0.00;0.00;;;12.60;99.90;;;;;;5015946;28;20052;-74
2021/08/31 00:39:25;;;;;;;0.00;0.00;;;12.60;99.90;;;;;;5015890;28;20113;-74
2021/08/31 00:41:51;;;;;;;0.15;0.15;;;12.70;99.90;;;;;;5033677;28;20025;-74
2021/08/31 00:44:21;;;;;;;0.00;0.00;;;12.80;99.90;;;;;;5033614;28;20061;-74
2021/08/31 00:46:54;;;;;;;0.00;0.00;;;12.70;99.90;;;;;;5033355;28;20032;-74
2021/08/31 00:49:21;;;;;;;0.00;0.00;;;12.70;99.90;;;;;;5033362;28;20029;-74
2021/08/31 00:51:48;;;;;;;0.00;0.00;;;12.70;99.90;;;;;;5033468;28;20340;-74
2021/08/31 00:54:16;;;;;;;0.10;0.10;;;12.70;99.90;;;;;;5033418;28;20022;-74
2021/08/31 00:56:44;;;;;;;0.00;0.00;;;12.70;99.90;;;;;;5033303;28;20018;-74
2021/08/31 00:59:10;;;;;;;0.08;0.08;;;12.70;99.90;;;;;;5033605;28;20028;-74
2021/08/31 01:01:36;;;;;;;0.00;0.00;;;12.70;99.90;;;;;;5033113;28;20021;-74
2021/08/31 01:04:02;;;;;;;0.25;0.25;;;12.80;99.90;;;;;;5033165;28;20026;-74
2021/08/31 01:06:27;;;;;;;0.28;0.28;;;12.80;99.90;;;;;;5015412;28;20033;-74
2021/08/31 01:08:55;;;;;;;0.00;0.00;;;12.70;99.90;;;;;;5032960;28;20385;-74
2021/08/31 01:11:20;;;;;;;0.00;0.00;;;12.70;99.90;;;;;;5015537;28;20385;-74
2021/08/31 01:13:47;;;;;;;0.00;0.00;;;12.80;99.90;;;;;;5033036;28;20030;-74
2021/08/31 01:16:13;;;;;;;0.00;0.00;;;12.80;99.90;;;;;;5015329;28;20021;-74
2021/08/31 01:18:38;;;;;;;0.63;0.38;;;12.80;99.90;;;;;;5033107;28;20033;-74
2021/08/31 01:21:05;;;;;;;0.00;0.00;;;12.90;99.90;;;;;;5015291;28;20497;-74
2021/08/31 01:23:31;;;;;;;0.40;0.40;;;12.90;99.90;;;;;;5015041;28;20079;-74
2021/08/31 01:25:58;;;;;;;0.00;0.00;;;12.90;99.90;;;;;;5032725;28;20065;-74
2021/08/31 01:28:30;;;;;;;0.00;0.00;;;12.90;99.90;;;;;;4998557;28;20025;-74
2021/08/31 01:31:00;;;;;;;0.17;0.17;;;12.90;99.90;;;;;;5015045;28;20029;-74
2021/08/31 01:33:28;;;;;;;0.03;0.03;;;12.90;99.90;;;;;;5032658;28;20031;-74
2021/08/31 01:35:54;;;;;;;0.00;0.00;;;12.80;99.90;;;;;;5032576;28;20022;-74
2021/08/31 01:38:20;;;;;;;0.15;0.15;;;12.90;99.90;;;;;;5032509;28;20385;-74
2021/08/31 01:40:46;;;;;;;0.32;0.32;;;12.90;99.90;;;;;;5014919;28;20478;-74
2021/08/31 01:43:24;;;;;;;0.00;0.00;;;12.90;99.90;;;;;;5032522;28;20083;-74
2021/08/31 01:45:50;;;;;;;0.00;0.00;;;12.90;99.90;;;;;;5032493;28;20029;-74
2021/08/31 01:48:16;;;;;;;0.00;0.00;;;13.00;99.90;;;;;;5032141;28;20112;-74
2021/08/31 01:50:42;;;;;;;0.00;0.00;;;13.00;99.90;;;;;;5032479;28;20064;-74
2021/08/31 01:53:07;;;;;;;0.00;0.00;;;13.10;99.90;;;;;;5032268;28;20021;-74
2021/08/31 01:55:34;;;;;;;0.00;0.00;;;13.20;99.90;;;;;;4998223;28;20029;-74
2021/08/31 01:58:00;;;;;;;0.00;0.00;;;13.20;99.90;;;;;;5032191;28;20473;-74
2021/08/31 02:00:27;;;;;;;0.00;0.00;;;13.30;99.90;;;;;;5014562;28;20556;-74
2021/08/31 02:02:52;;;;;;;0.00;0.00;;;13.40;99.90;;;;;;5014511;28;20389;-74
2021/08/31 02:05:18;;;;;;;0.17;0.10;;;13.40;99.90;;;;;;5032145;28;20028;-74
2021/08/31 02:07:44;;;;;;;0.00;0.00;;;13.50;99.90;;;;;;4997957;28;20025;-74
2021/08/31 02:10:11;;;;;;;0.00;0.00;;;13.40;99.90;;;;;;5032212;28;20048;-74
2021/08/31 02:12:37;;;;;;;0.00;0.00;;;13.40;99.90;;;;;;5031510;28;20499;-74
2021/08/31 02:15:03;;;;;;;0.00;0.00;;;13.50;99.90;;;;;;5032002;28;20092;-74
2021/08/31 02:17:29;;;;;;;0.00;0.00;;;13.50;99.90;;;;;;5032002;28;20362;-74
2021/08/31 02:19:55;;;;;;;0.00;0.00;;;13.60;99.90;;;;;;5032070;28;20032;-74
2021/08/31 02:22:20;;;;;;;0.00;0.00;;;13.60;99.90;;;;;;5031993;28;20029;-74
2021/08/31 02:24:46;;;;;;;0.00;0.00;;;13.60;99.90;;;;;;5014178;28;20030;-74
2021/08/31 02:27:12;;;;;;;0.00;0.00;;;13.70;99.90;;;;;;5014060;28;20112;-74
2021/08/31 02:29:38;;;;;;;0.38;0.38;;;13.60;99.90;;;;;;5014108;28;20386;-74
2021/08/31 02:32:05;;;;;;;0.00;0.00;;;13.50;99.90;;;;;;5031913;28;20024;-74
2021/08/31 02:34:32;;;;;;;0.00;0.00;;;13.50;99.90;;;;;;5013976;28;20026;-74
2021/08/31 02:36:57;;;;;;;0.00;0.00;;;13.40;99.90;;;;;;5031929;28;20104;-74
2021/08/31 02:39:23;;;;;;;0.00;0.00;;;13.40;99.90;;;;;;5014103;28;20457;-74
2021/08/31 02:41:49;;;;;;;0.00;0.00;;;13.40;99.90;;;;;;5031882;28;20071;-74
2021/08/31 02:44:15;;;;;;;0.00;0.00;;;13.40;99.90;;;;;;5031647;28;20025;-74
2021/08/31 02:46:40;;;;;;;0.00;0.00;;;13.50;99.90;;;;;;5031781;28;20036;-74
2021/08/31 02:49:06;;;;;;;0.00;0.00;;;13.60;99.90;;;;;;4997563;28;20120;-74
2021/08/31 02:51:32;;;;;;;0.00;0.00;;;13.70;99.90;;;;;;5013934;28;20032;-74
2021/08/31 02:53:57;;;;;;;0.00;0.00;;;13.70;99.90;;;;;;5031598;28;20029;-74
2021/08/31 02:56:23;;;;;;;0.45;0.32;;;13.70;99.90;;;;;;5031637;28;20021;-74
2021/08/31 02:58:49;;;;;;;0.00;0.00;;;13.60;99.90;;;;;;5031584;28;20021;-74
2021/08/31 03:04:02;;;;;;;0.00;0.00;;;13.60;99.90;;;;;;4991109;28;20397;-74
2021/08/31 03:06:30;;;;;;;0.00;0.00;;;13.70;99.90;;;;;;5031632;28;20448;-74
2021/08/31 03:08:56;;;;;;;0.00;0.00;;;13.70;99.90;;;;;;5031466;28;20397;-74
2021/08/31 03:11:22;;;;;;;0.00;0.00;;;13.60;99.90;;;;;;5013861;28;20040;-74
2021/08/31 03:13:48;;;;;;;0.00;0.00;;;13.60;99.90;;;;;;5031402;28;20026;-74
2021/08/31 03:16:14;;;;;;;0.20;0.20;;;13.70;99.90;;;;;;5013788;28;20021;-74
2021/08/31 03:18:40;;;;;;;0.00;0.00;;;13.80;99.90;;;;;;5013730;28;20497;-74
2021/08/31 03:21:06;;;;;;;0.08;0.08;;;13.60;99.90;;;;;;5031472;28;20021;-74
2021/08/31 03:23:32;;;;;;;0.00;0.00;;;13.70;99.90;;;;;;5031454;28;20079;-74
2021/08/31 03:25:58;;;;;;;0.00;0.00;;;13.70;99.90;;;;;;5015882;28;20021;-74
2021/08/31 03:28:24;;;;;;;0.00;0.00;;;13.70;99.90;;;;;;5034909;28;20444;-74
2021/08/31 03:30:50;;;;;;;0.00;0.00;;;13.70;99.90;;;;;;5017123;28;20167;-74
2021/08/31 03:33:16;;;;;;;0.00;0.00;;;13.70;99.90;;;;;;5017308;28;20071;-74
2021/08/31 03:35:42;;;;;;;0.00;0.00;;;13.70;99.90;;;;;;5034841;28;20036;-74
2021/08/31 03:38:08;;;;;;;0.20;0.20;;;13.70;99.90;;;;;;5035047;28;20412;-74
2021/08/31 03:40:34;;;;;;;0.00;0.00;;;13.80;99.90;;;;;;5035059;28;20109;-74
2021/08/31 03:43:00;;;;;;;0.00;0.00;;;13.80;99.90;;;;;;5035115;28;20473;-74
2021/08/31 03:45:26;;;;;;;0.00;0.00;;;13.70;99.90;;;;;;5034552;28;20026;-74
2021/08/31 03:47:51;;;;;;;0.00;0.00;;;13.80;99.90;;;;;;5034602;28;20477;-74
2021/08/31 03:50:17;;;;;;;0.15;0.15;;;13.80;99.90;;;;;;5034432;28;20474;-74
2021/08/31 03:52:43;;;;;;;0.00;0.00;;;13.90;99.90;;;;;;5034603;28;20075;-74
2021/08/31 03:55:09;;;;;;;0.00;0.00;;;13.90;99.90;;;;;;5034400;28;20421;-74
2021/08/31 03:57:36;;;;;;;0.00;0.00;;;13.80;99.90;;;;;;5016787;28;20025;-74
2021/08/31 04:00:02;;;;;;;0.00;0.00;;;13.70;99.90;;;;;;5034408;28;20021;-74
2021/08/31 04:02:27;;;;;;;0.00;0.00;;;13.90;99.90;;;;;;5016854;28;20120;-74
2021/08/31 04:04:53;;;;;;;0.00;0.00;;;13.80;99.90;;;;;;5016467;28;20033;-74
2021/08/31 04:07:19;;;;;;;0.00;0.00;;;13.70;99.90;;;;;;5034308;28;20078;-74
2021/08/31 04:09:45;;;;;;;0.05;0.05;;;13.80;99.90;;;;;;5034221;28;20063;-74
2021/08/31 04:12:10;;;;;;;0.00;0.00;;;13.80;99.90;;;;;;5034249;28;20026;-73
2021/08/31 04:14:36;;;;;;;0.00;0.00;;;13.70;99.90;;;;;;4999889;28;20049;-74
2021/08/31 04:17:02;;;;;;;0.00;0.00;;;13.80;99.90;;;;;;5034186;28;20111;-74
2021/08/31 04:19:27;;;;;;;0.30;0.30;;;13.70;99.90;;;;;;5034132;28;20025;-74
2021/08/31 04:21:53;;;;;;;0.05;0.05;;;13.70;99.90;;;;;;5034082;28;20029;-74
2021/08/31 04:24:19;;;;;;;0.00;0.00;;;13.80;99.90;;;;;;5033952;28;20477;-74
2021/08/31 04:26:45;;;;;;;0.00;0.00;;;13.70;99.90;;;;;;5015959;28;20400;-74
2021/08/31 04:29:10;;;;;;;0.00;0.00;;;13.60;99.90;;;;;;5015953;28;20080;-74
2021/08/31 04:31:36;;;;;;;0.00;0.00;;;13.60;99.90;;;;;;5033871;28;20105;-74
2021/08/31 04:34:02;;;;;;;0.00;0.00;;;13.60;99.90;;;;;;5033708;28;20022;-74
2021/08/31 04:36:28;;;;;;;0.10;0.10;;;13.60;99.90;;;;;;5015562;28;20049;-74
2021/08/31 04:38:54;;;;;;;0.40;0.40;;;13.60;99.90;;;;;;5033619;28;20104;-74
2021/08/31 04:41:20;;;;;;;0.00;0.00;;;13.60;99.90;;;;;;4999566;28;20120;-74
2021/08/31 04:43:46;;;;;;;0.10;0.10;;;13.70;99.90;;;;;;5015811;28;20121;-74
2021/08/31 04:46:12;;;;;;;0.03;0.03;;;13.60;99.90;;;;;;5015839;28;20444;-74
2021/08/31 04:48:38;;;;;;;0.00;0.00;;;13.60;99.90;;;;;;5015549;28;20108;-74
2021/08/31 04:51:05;;;;;;;0.00;0.00;;;13.50;99.90;;;;;;5046380;22;20057;-75
2021/08/31 04:53:31;;;;;;;0.00;0.00;;;13.60;99.90;;;;;;5033441;28;20024;-75
2021/08/31 04:55:56;;;;;;;0.00;0.00;;;13.70;99.90;;;;;;5032125;28;20108;-75
2021/08/31 04:58:22;;;;;;;0.00;0.00;;;13.80;99.90;;;;;;5015485;28;20029;-75
2021/08/31 05:00:48;;;;;;;0.00;0.00;;;13.70;99.90;;;;;;5033235;28;20044;-75
2021/08/31 05:03:14;;;;;;;0.00;0.00;;;13.70;99.90;;;;;;5032953;28;20436;-75
2021/08/31 05:05:42;;;;;;;0.00;0.00;;;13.70;99.90;;;;;;5030410;28;20022;-75
2021/08/31 05:08:07;;;;;;;0.00;0.00;;;13.70;99.90;;;;;;5029502;28;20496;-75
2021/08/31 05:10:33;;;;;;;0.20;0.20;;;13.70;99.90;;;;;;5031954;28;20041;-72
2021/08/31 05:12:59;;;;;;;0.05;0.05;;;13.70;99.90;;;;;;5031445;28;20028;-72
2021/08/31 05:15:24;;;;;;;0.00;0.00;;;13.70;99.90;;;;;;5030554;28;20163;-72
2021/08/31 05:17:50;;;;;;;0.00;0.00;;;13.80;99.90;;;;;;5029948;28;20030;-72
2021/08/31 05:20:17;;;;;;;0.00;0.00;;;13.70;99.90;;;;;;5014112;28;20466;-72
2021/08/31 05:22:43;;;;;;;0.00;0.00;;;13.70;99.90;;;;;;5031636;28;20036;-72
2021/08/31 05:25:09;;;;;;;0.00;0.00;;;13.80;99.90;;;;;;5014267;28;20030;-72
2021/08/31 05:27:35;;;;;;;0.00;0.00;;;13.80;99.90;;;;;;5030006;28;20496;-73
2021/08/31 05:30:01;;;;;;;0.00;0.00;;;13.80;99.90;;;;;;5031879;28;20017;-72
2021/08/31 05:32:27;;;;;;;0.00;0.00;;;13.80;99.90;;;;;;5030094;28;20032;-72
2021/08/31 05:34:52;;;;;;;0.20;0.20;;;13.80;99.90;;;;;;5031553;28;20449;-72
2021/08/31 05:37:18;;;;;;;0.10;0.10;;;13.70;99.90;;;;;;5013528;28;20034;-72
2021/08/31 05:39:44;;;;;;;0.00;0.00;;;13.50;99.90;;;;;;5031583;28;20033;-72
2021/08/31 05:42:10;;;;;;;0.00;0.00;;;13.50;99.90;;;;;;5031307;28;20025;-72
2021/08/31 05:44:38;;;;;;;0.00;0.00;;;13.50;99.90;;;;;;5031210;28;20440;-72
2021/08/31 05:47:05;;;;;;;0.00;0.00;;;13.50;99.90;;;;;;5030736;28;20047;-72
2021/08/31 05:49:32;;;;;;;0.10;0.10;;;13.40;99.90;;;;;;5031694;28;20025;-72
2021/08/31 05:51:59;;;;;;;0.00;0.00;;;13.50;99.90;;;;;;5032662;28;20024;-72
2021/08/31 05:54:26;;;;;;;1.20;0.47;;;13.50;99.90;;;;;;5031436;28;20029;-72
2021/08/31 05:56:56;;;;;;;0.75;0.75;;;13.50;99.90;;;;;;5034309;28;20032;-72
2021/08/31 05:59:21;;;;;;;0.00;0.00;;;13.50;99.90;;;;;;5037674;28;20468;-72
2021/08/31 06:01:48;;;;;;;0.00;0.00;;;13.40;99.90;;;;;;5013652;28;20075;-72
2021/08/31 06:04:15;;;;;;;0.00;0.00;;;13.60;99.90;;;;;;5030123;28;20110;-72
2021/08/31 06:06:40;;;;;;;0.10;0.10;;;13.70;99.90;;;;;;5031650;28;20025;-72
2021/08/31 06:09:06;;;;;;;0.10;0.10;;;13.60;99.90;;;;;;5028913;28;20163;-72
2021/08/31 06:11:39;;;;;;;0.10;0.10;;;13.60;99.90;;;;;;5031070;28;20028;-72
2021/08/31 06:14:08;;;;;;;1.08;1.00;;;13.60;99.90;;;;;;5012831;28;20025;-72
2021/08/31 06:16:34;;;;;;;0.10;0.10;;;13.70;99.90;;;;;;5029630;28;20511;-72
2021/08/31 06:19:01;;;;;;;0.75;0.63;;;13.80;99.90;;;;;;5028440;28;20072;-72
2021/08/31 06:21:28;;;;;;;0.28;0.28;;;13.80;99.90;;;;;;5036994;28;20028;-72
2021/08/31 06:23:54;;;;;;;4.18;1.10;;;13.80;99.90;;;;;;5030200;28;20495;-72
2021/08/31 06:26:19;;;;;;;0.08;0.08;;;13.60;99.90;;;;;;5030755;28;20104;-72
2021/08/31 06:28:45;;;;;;;0.08;0.08;;;13.70;99.90;;;;;;5034511;28;20055;-72
2021/08/31 06:31:11;;;;;;;0.10;0.10;;;13.80;99.90;;;;;;5029547;28;20031;-72
2021/08/31 06:33:37;;;;;;;0.00;0.00;;;13.70;99.90;;;;;;5012567;28;20499;-72
2021/08/31 06:36:04;;;;;;;0.10;0.10;;;13.70;99.90;;;;;;5028810;28;20052;-72
2021/08/31 06:38:30;;;;;;;0.63;0.50;;;13.60;99.90;;;;;;5027595;28;20021;-72
2021/08/31 06:40:56;;;;;;;0.10;0.10;;;13.70;99.90;;;;;;5029240;28;20508;-72
2021/08/31 06:43:21;;;;;;;0.08;0.08;;;13.80;99.90;;;;;;5029028;28;20022;-72
2021/08/31 06:45:47;;;;;;;0.10;0.10;;;13.90;99.90;;;;;;5012802;28;20040;-72
2021/08/31 06:48:13;;;;;;;0.17;0.17;;;13.90;99.90;;;;;;5028547;28;20025;-72
2021/08/31 06:50:38;;;;;;;0.05;0.05;;;13.90;99.90;;;;;;5030210;28;20048;-72
2021/08/31 06:53:04;;;;;;;0.00;0.00;;;13.90;99.90;;;;;;5030431;28;20022;-72
2021/08/31 06:55:30;;;;;;;1.88;0.75;;;14.10;99.90;;;;;;5029670;28;20029;-72
2021/08/31 06:57:57;;;;;;;0.00;0.00;;;14.00;99.90;;;;;;5030690;28;20075;-73
2021/08/31 07:00:22;;;;;;;0.03;0.03;;;14.00;99.90;;;;;;5032520;28;20036;-73
2021/08/31 07:02:48;;;;;;;0.00;0.00;;;14.10;99.90;;;;;;5032923;28;20029;-72
2021/08/31 07:05:14;;;;;;;0.30;0.30;;;14.10;99.90;;;;;;5016732;28;20121;-73
2021/08/31 07:07:40;;;;;;;0.00;0.00;;;13.90;99.90;;;;;;5034017;28;20175;-74
2021/08/31 07:10:07;;;;;;;0.30;0.20;;;13.80;99.90;;;;;;5032585;28;20022;-73
2021/08/31 07:12:33;;;;;;;0.40;0.40;;;13.70;99.90;;;;;;5033030;28;20038;-74
2021/08/31 07:14:59;;;;;;;0.00;0.00;;;13.70;99.90;;;;;;5032444;28;20084;-74
2021/08/31 07:17:25;;;;;;;0.03;0.03;;;13.80;99.90;;;;;;5034003;28;20035;-74
2021/08/31 07:19:51;;;;;;;0.00;0.00;;;13.90;99.90;;;;;;5015690;28;20152;-74
2021/08/31 07:22:17;;;;;;;0.10;0.10;;;13.80;99.90;;;;;;5034253;28;20033;-73
2021/08/31 07:24:44;;;;;;;0.00;0.00;;;13.80;99.90;;;;;;5032380;28;20025;-73
2021/08/31 07:27:10;;;;;;;0.00;0.00;;;13.90;99.90;;;;;;5032707;28;20464;-73
2021/08/31 07:29:36;;;;;;;1.48;0.73;;;14.00;99.90;;;;;;5015511;28;20117;-73
2021/08/31 07:32:02;;;;;;;0.00;0.00;;;14.00;99.90;;;;;;5032588;28;20018;-73
2021/08/31 07:34:28;;;;;;;0.10;0.10;;;14.10;99.90;;;;;;5032002;28;20055;-74
2021/08/31 07:36:55;;;;;;;0.00;0.00;;;14.10;99.90;;;;;;5016069;28;20108;-76
2021/08/31 07:39:21;;;;;;;0.00;0.00;;;14.10;99.90;;;;;;5032814;28;20018;-76
2021/08/31 07:41:47;;;;;;;5.13;1.13;;;14.10;99.90;;;;;;5032324;28;20088;-76
2021/08/31 07:44:13;;;;;;;0.00;0.00;;;14.10;99.90;;;;;;5031967;28;20029;-76
2021/08/31 07:46:45;;;;;;;0.30;0.30;;;14.20;99.90;;;;;;5032342;28;20021;-76
2021/08/31 07:49:11;;;;;;;0.10;0.10;;;14.30;99.90;;;;;;5014821;28;20064;-76
2021/08/31 07:51:37;;;;;;;0.00;0.00;;;14.30;99.90;;;;;;5032339;28;20026;-76
2021/08/31 07:54:03;;;;;;;0.10;0.10;;;14.30;99.90;;;;;;5033122;28;20024;-76
2021/08/31 07:56:29;;;;;;;0.30;0.30;;;14.40;99.90;;;;;;5031658;28;20017;-76
2021/08/31 07:58:55;;;;;;;0.55;0.55;;;14.30;99.90;;;;;;5032937;28;20017;-76
2021/08/31 08:01:21;;;;;;;0.85;0.85;;;14.20;99.90;;;;;;5031909;28;20389;-76
2021/08/31 08:03:46;;;;;;;2.25;0.98;;;14.20;99.90;;;;;;5031863;28;20374;-76
2021/08/31 08:06:12;;;;;;;0.10;0.10;;;14.20;99.90;;;;;;5032233;28;20021;-76
2021/08/31 08:08:38;;;;;;;0.17;0.17;;;14.30;99.90;;;;;;5037735;28;20029;-76
2021/08/31 08:11:03;;;;;;;0.10;0.10;;;14.40;99.90;;;;;;5033770;28;20421;-76
2021/08/31 08:13:29;;;;;;;0.00;0.00;;;14.40;99.90;;;;;;5032139;28;20088;-76
2021/08/31 08:15:55;;;;;;;0.22;0.22;;;14.30;99.90;;;;;;5030941;28;20021;-76
2021/08/31 08:18:21;;;;;;;0.82;0.82;;;14.20;99.90;;;;;;5035959;28;20040;-76
2021/08/31 08:20:46;;;;;;;0.10;0.10;;;14.30;99.90;;;;;;5030287;28;20116;-76
2021/08/31 08:23:13;;;;;;;0.03;0.03;;;14.50;99.90;;;;;;5031818;28;20025;-76
2021/08/31 08:25:39;;;;;;;0.98;0.98;;;14.50;99.90;;;;;;5030910;28;20485;-76
2021/08/31 08:28:05;;;;;;;0.00;0.00;;;14.50;99.90;;;;;;5032785;28;20033;-76
2021/08/31 08:30:31;;;;;;;0.00;0.00;;;14.50;99.90;;;;;;5032332;28;20025;-76
2021/08/31 08:32:56;;;;;;;0.10;0.10;;;14.40;99.90;;;;;;5015022;28;20132;-76
2021/08/31 08:35:22;;;;;;;0.10;0.10;;;14.30;99.90;;;;;;5032282;28;20036;-76
2021/08/31 08:37:48;;;;;;;0.00;0.00;;;14.40;99.90;;;;;;5031236;28;20061;-76
2021/08/31 08:40:14;;;;;;;0.00;0.00;;;14.70;99.90;;;;;;5033633;28;20041;-76
2021/08/31 08:42:40;;;;;;;0.95;0.95;;;14.80;99.90;;;;;;5033749;28;20029;-76
2021/08/31 08:45:08;;;;;;;0.10;0.10;;;14.80;99.90;;;;;;5032536;28;20022;-76
2021/08/31 08:47:34;;;;;;;0.10;0.10;;;14.80;99.90;;;;;;5026600;28;20069;-76
2021/08/31 08:50:01;;;;;;;0.35;0.35;;;14.80;99.90;;;;;;5031908;28;20025;-77
2021/08/31 08:52:28;;;;;;;0.00;0.00;;;14.80;99.90;;;;;;5014532;28;20030;-76
2021/08/31 08:54:53;;;;;;;3.33;1.02;;;14.70;99.90;;;;;;5030589;28;20028;-76
2021/08/31 08:57:20;;;;;;;0.00;0.00;;;14.70;99.90;;;;;;5032532;28;20108;-76
2021/08/31 08:59:49;;;;;;;0.00;0.00;;;14.60;99.90;;;;;;5031037;28;20041;-76
2021/08/31 09:02:38;;;;;;;0.00;0.00;;;14.60;99.90;;;;;;5031107;28;20025;-77
2021/08/31 09:05:09;;;;;;;0.00;0.00;;;14.60;99.90;;;;;;5025922;28;20029;-76
2021/08/31 09:07:40;;;;;;;0.10;0.10;;;14.60;99.90;;;;;;5030102;28;20037;-76
2021/08/31 09:10:20;;;;;;;0.10;0.10;;;14.70;99.90;;;;;;5033320;28;20492;-76
2021/08/31 09:12:50;;;;;;;0.00;0.00;;;14.70;99.90;;;;;;5018951;28;20469;-76
2021/08/31 09:15:26;;;;;;;0.00;0.00;;;14.70;99.90;;;;;;5030252;28;20095;-76
2021/08/31 09:18:04;;;;;;;0.00;0.00;;;14.80;99.90;;;;;;5024532;28;20092;-76
2021/08/31 09:20:46;;;;;;;0.00;0.00;;;14.90;99.90;;;;;;5030174;28;20029;-77
2021/08/31 09:23:21;;;;;;;0.08;0.08;;;14.80;99.90;;;;;;5030991;28;20116;-76
2021/08/31 09:25:50;;;;;;;0.10;0.10;;;14.70;99.90;;;;;;5031376;28;20037;-76
2021/08/31 09:28:26;;;;;;;3.30;1.20;;;14.80;99.90;;;;;;5013413;28;20079;-76
2021/08/31 09:30:59;;;;;;;0.10;0.10;;;14.60;99.90;;;;;;5031366;28;20029;-76
2021/08/31 09:33:26;;;;;;;0.00;0.00;;;14.50;99.90;;;;;;5014196;28;20558;-76
2021/08/31 09:36:00;;;;;;;0.00;0.00;;;14.50;99.90;;;;;;5031188;28;20014;-76
2021/08/31 09:38:38;;;;;;;0.10;0.10;;;14.50;99.90;;;;;;5027337;28;20087;-76
2021/08/31 09:41:04;;;;;;;0.00;0.00;;;14.40;99.90;;;;;;5029920;28;20028;-76
2021/08/31 09:43:30;;;;;;;0.00;0.00;;;14.40;99.90;;;;;;5030400;28;20030;-77
2021/08/31 09:45:56;;;;;;;0.05;0.05;;;14.40;99.90;;;;;;5029437;28;20029;-76
2021/08/31 09:48:23;;;;;;;0.00;0.00;;;14.50;99.90;;;;;;5031229;28;20164;-76
2021/08/31 09:50:51;;;;;;;1.08;1.08;;;14.40;99.90;;;;;;5030907;28;20060;-76
2021/08/31 09:53:23;;;;;;;0.30;0.30;;;14.40;99.90;;;;;;5030225;28;20028;-76
2021/08/31 09:56:03;;;;;;;0.10;0.10;;;14.30;99.90;;;;;;5030776;28;20021;-76
2021/08/31 09:58:31;;;;;;;0.00;0.00;;;14.40;99.90;;;;;;5031336;28;20033;-76
2021/08/31 10:00:57;;;;;;;0.10;0.10;;;14.30;99.90;;;;;;5030947;28;20044;-75
2021/08/31 10:03:24;;;;;;;0.00;0.00;;;14.40;99.90;;;;;;5031299;28;20108;-75
2021/08/31 10:05:52;;;;;;;0.08;0.08;;;14.40;99.90;;;;;;5030592;28;20483;-75
2021/08/31 10:08:19;;;;;;;0.10;0.10;;;14.50;99.90;;;;;;5029589;28;20021;-75
2021/08/31 10:10:51;;;;;;;0.00;0.00;;;14.60;99.90;;;;;;5029551;28;20056;-75
2021/08/31 10:13:21;;;;;;;0.00;0.00;;;14.80;99.90;;;;;;5030040;28;20092;-75
2021/08/31 10:15:50;;;;;;;1.05;1.05;;;14.80;99.90;;;;;;5025017;28;20053;-75
2021/08/31 10:18:18;;;;;;;0.15;0.15;;;14.80;99.90;;;;;;5031136;28;20621;-75
2021/08/31 10:21:05;;;;;;;0.00;0.00;;;14.90;99.90;;;;;;5030951;28;20271;-75
2021/08/31 10:23:35;;;;;;;0.00;0.00;;;14.90;99.90;;;;;;5029514;28;20556;-75
2021/08/31 10:26:33;;;;;;;0.00;0.00;;;14.90;99.90;;;;;;5012826;28;20105;-75
2021/08/31 10:29:14;;;;;;;0.13;0.13;;;15.20;99.90;;;;;;5030346;28;20079;-75
2021/08/31 10:31:51;;;;;;;0.20;0.20;;;15.40;99.90;;;;;;5032123;28;20021;-75
2021/08/31 10:34:29;;;;;;;0.10;0.10;;;15.50;99.90;;;;;;5037499;28;20017;-75
2021/08/31 10:37:15;;;;;;;0.30;0.30;;;15.50;99.90;;;;;;5037074;28;20539;-75
2021/08/31 10:39:48;;;;;;;0.00;0.00;;;15.50;99.90;;;;;;5037013;28;20021;-75
2021/08/31 10:42:34;;;;;;;0.20;0.20;;;15.60;99.90;;;;;;5040564;28;20036;-75
2021/08/31 10:45:25;;;;;;;0.10;0.10;;;15.50;99.90;;;;;;5006191;28;20033;-75
2021/08/31 10:47:52;;;;;;;0.13;0.13;;;15.60;99.90;;;;;;5036334;28;20108;-75
2021/08/31 10:50:24;;;;;;;0.10;0.10;;;15.60;99.90;;;;;;5037558;28;20045;-75
2021/08/31 10:53:02;;;;;;;0.10;0.10;;;15.60;99.90;;;;;;5036574;28;20512;-75
2021/08/31 10:55:28;;;;;;;0.10;0.10;;;15.60;99.90;;;;;;5035707;28;20108;-75
2021/08/31 10:58:07;;;;;;;0.00;0.00;;;15.60;99.90;;;;;;5035533;28;20458;-75
2021/08/31 11:00:33;;;;;;;0.80;0.77;;;15.70;99.90;;;;;;5035572;28;20080;-75
2021/08/31 11:03:00;;;;;;;0.25;0.25;;;15.70;99.90;;;;;;5035884;28;20035;-75
2021/08/31 11:05:30;;;;;;;0.10;0.10;;;15.60;99.90;;;;;;5035885;28;20033;-76
2021/08/31 11:08:01;;;;;;;0.25;0.25;;;15.70;99.90;;;;;;5034442;28;20079;-75
2021/08/31 11:10:32;;;;;;;0.10;0.10;;;15.70;99.90;;;;;;5035643;28;20028;-75
2021/08/31 11:13:11;;;;;;;0.00;0.00;;;15.70;99.90;;;;;;5036441;28;20034;-75
2021/08/31 11:15:37;;;;;;;0.17;0.17;;;16.00;99.90;;;;;;5035700;28;20031;-75
2021/08/31 11:18:08;;;;;;;0.10;0.10;;;16.20;99.90;;;;;;5036417;28;20104;-75
2021/08/31 11:20:34;;;;;;;7.78;2.20;;;16.40;99.90;;;;;;5036676;28;20029;-75
2021/08/31 11:23:05;;;;;;;0.08;0.08;;;16.60;99.90;;;;;;5036571;28;20053;-75
2021/08/31 11:25:33;;;;;;;0.10;0.10;;;16.80;99.90;;;;;;5036897;28;20823;-75
2021/08/31 11:28:02;;;;;;;0.10;0.10;;;16.70;99.90;;;;;;5018501;28;20032;-75
2021/08/31 11:30:28;;;;;;;0.10;0.10;;;16.70;99.90;;;;;;5041821;28;20075;-72
2021/08/31 11:33:21;;;;;;;0.10;0.10;;;16.60;99.90;;;;;;5040691;28;20438;-72
2021/08/31 11:35:52;;;;;;;0.10;0.10;;;16.40;99.90;;;;;;5031942;28;20170;-75
2021/08/31 11:38:39;;;;;;;0.55;0.45;;;16.40;99.90;;;;;;5038943;28;20473;-75
2021/08/31 11:41:20;;;;;;;0.10;0.10;;;16.40;99.90;;;;;;5035457;28;20140;-75
2021/08/31 11:43:58;;;;;;;0.10;0.10;;;16.30;99.90;;;;;;5034800;28;20556;-75
2021/08/31 11:46:25;;;;;;;0.82;0.82;;;16.20;99.90;;;;;;5034109;28;20029;-75
2021/08/31 11:49:13;;;;;;;0.15;0.15;;;16.10;99.90;;;;;;5031579;28;20025;-75
2021/08/31 11:52:00;;;;;;;0.20;0.20;;;16.10;99.90;;;;;;5028422;28;20044;-75
2021/08/31 11:54:32;;;;;;;0.10;0.10;;;16.00;99.90;;;;;;5016160;28;20125;-76
2021/08/31 11:57:02;;;;;;;;;;;16.00;99.90;;;;;;5033875;28;20045;-76
2021/08/31 11:59:40;;;;;;;0.05;0.05;;;15.70;99.90;;;;;;5032961;28;19983;-75
2021/08/31 12:02:25;;;;;;;0.82;0.50;;;15.80;99.90;;;;;;5033446;28;20029;-75
2021/08/31 12:04:54;;;;;;;0.25;0.25;;;15.80;99.90;;;;;;5032284;28;20029;-75
2021/08/31 12:07:28;;;;;;;0.10;0.10;;;15.60;99.90;;;;;;5032743;28;20107;-75
2021/08/31 12:09:57;;;;;;;0.68;0.32;;;15.50;99.90;;;;;;5029056;28;20072;-75
2021/08/31 12:12:23;;;;;;;0.45;0.40;;;15.40;99.90;;;;;;5031989;28;20120;-75
2021/08/31 12:14:50;;;;;;;0.10;0.10;;;15.30;99.90;;;;;;5033293;28;20101;-73
2021/08/31 12:17:38;;;;;;;0.08;0.08;;;15.30;99.90;;;;;;5033264;28;20052;-73
2021/08/31 12:20:08;;;;;;;0.10;0.10;;;15.20;99.90;;;;;;5031072;28;20512;-73
2021/08/31 12:22:37;;;;;;;0.10;0.10;;;15.20;99.90;;;;;;5028338;28;20430;-73
2021/08/31 12:25:04;;;;;;;0.10;0.10;;;15.30;99.90;;;;;;5015554;28;20173;-73
2021/08/31 12:27:52;;;;;;;0.10;0.10;;;15.20;99.90;;;;;;5031791;28;20056;-73
2021/08/31 12:30:34;;;;;;;0.08;0.08;;;15.00;99.90;;;;;;5029946;28;20099;-73
2021/08/31 12:32:59;;;;;;;0.10;0.10;;;15.20;99.90;;;;;;5031006;28;20021;-73
2021/08/31 12:35:35;;;;;;;0.13;0.13;;;15.40;99.90;;;;;;5014932;28;20455;-73
2021/08/31 12:38:07;;;;;;;0.10;0.10;;;15.60;99.90;;;;;;5032288;28;20029;-73
2021/08/31 12:40:36;;;;;;;0.40;0.40;;;15.70;99.90;;;;;;5032861;28;20018;-73
2021/08/31 12:43:08;;;;;;;0.10;0.10;;;15.80;99.90;;;;;;5030398;28;20033;-73
2021/08/31 12:45:36;;;;;;;0.00;0.00;;;15.80;99.90;;;;;;5038920;28;20404;-73
2021/08/31 12:48:03;;;;;;;0.00;0.00;;;15.90;99.90;;;;;;5033029;28;20072;-73
2021/08/31 12:50:31;;;;;;;0.00;0.00;;;15.80;99.90;;;;;;5014050;28;20033;-73
2021/08/31 12:52:59;;;;;;;0.10;0.10;;;15.70;99.90;;;;;;5030720;28;20025;-73
2021/08/31 12:55:32;;;;;;;0.10;0.10;;;15.70;99.90;;;;;;5013308;28;20128;-73